createdAt,value
2022-10-20T00:07:53.228Z,100.00
2022-10-20T00:18:14.612Z,100.00
2022-10-20T00:28:36.016Z,100.00
2022-10-20T00:38:58.806Z,100.00
2022-10-20T00:49:25.132Z,100.00
2022-10-20T00:59:46.481Z,100.00
2022-10-20T01:10:09.261Z,100.00
2022-10-20T01:20:45.904Z,100.00
2022-10-20T01:31:21.902Z,100.00
2022-10-20T01:41:49.434Z,100.00
2022-10-20T01:52:11.397Z,100.00
2022-10-20T02:02:43.513Z,100.00
2022-10-20T02:13:07.038Z,100.00
2022-10-20T02:23:36.627Z,100.00
2022-10-20T02:33:58.859Z,100.00
2022-10-20T02:44:20.329Z,100.00
2022-10-20T02:54:41.677Z,100.00
2022-10-20T03:05:03.472Z,100.00
2022-10-20T03:15:24.859Z,100.00
2022-10-20T03:25:46.359Z,100.00
2022-10-20T03:36:07.846Z,100.00
2022-10-20T03:46:29.201Z,100.00
2022-10-20T03:56:50.567Z,100.00
2022-10-20T04:07:11.992Z,100.00
2022-10-20T04:17:33.505Z,100.00
2022-10-20T04:27:54.917Z,100.00
2022-10-20T04:38:16.276Z,100.00
2022-10-20T04:48:38.108Z,100.00
2022-10-20T04:58:59.937Z,100.00
2022-10-20T05:09:21.299Z,100.00
2022-10-20T05:19:42.652Z,100.00
2022-10-20T05:30:04.271Z,100.00
2022-10-20T05:40:25.643Z,100.00
2022-10-20T05:50:46.996Z,100.00
2022-10-20T06:01:09.549Z,100.00
2022-10-20T06:11:32.174Z,100.00
2022-10-20T06:21:55.233Z,100.00
2022-10-20T06:32:18.362Z,100.00
2022-10-20T06:42:39.856Z,100.00
2022-10-20T06:53:01.219Z,100.00
2022-10-20T07:03:22.560Z,98.98
2022-10-20T07:13:44.052Z,98.70
2022-10-20T07:24:06.677Z,97.67
2022-10-20T07:34:28.307Z,99.15
2022-10-20T07:44:49.698Z,98.76
2022-10-20T07:55:25.361Z,96.90
2022-10-20T08:05:52.432Z,96.35
2022-10-20T08:16:18.662Z,94.91
2022-10-20T08:26:40.040Z,96.14
2022-10-20T08:37:01.428Z,94.16
2022-10-20T08:47:35.435Z,94.11
2022-10-20T08:57:59.707Z,93.62
2022-10-20T09:08:21.943Z,93.83
2022-10-20T09:18:43.522Z,93.45
2022-10-20T09:29:14.162Z,92.35
2022-10-20T09:39:43.099Z,93.50
2022-10-20T09:50:06.641Z,92.24
2022-10-20T10:00:38.649Z,91.57
2022-10-20T10:11:05.429Z,90.69
2022-10-20T10:21:27.334Z,90.90
2022-10-20T10:31:58.010Z,91.81
2022-10-20T10:42:29.052Z,90.85
2022-10-20T10:52:56.406Z,90.48
2022-10-20T11:03:25.192Z,91.76
2022-10-20T11:14:05.520Z,88.36
2022-10-20T11:24:38.624Z,90.18
2022-10-20T11:35:13.288Z,86.92
2022-10-20T11:45:42.355Z,86.24
2022-10-20T11:56:06.762Z,87.42
2022-10-20T12:06:40.781Z,85.53
2022-10-20T12:17:21.141Z,88.15
2022-10-20T12:27:42.480Z,83.71
2022-10-20T12:38:04.550Z,83.91
2022-10-20T12:48:26.275Z,84.79
2022-10-20T12:59:06.539Z,83.60
2022-10-20T13:09:28.018Z,82.73
2022-10-20T13:19:58.916Z,85.13
2022-10-20T13:30:23.005Z,84.87
2022-10-20T13:40:51.557Z,83.85
2022-10-20T13:51:20.490Z,86.61
2022-10-20T14:01:46.068Z,84.05
2022-10-20T14:12:27.676Z,83.54
2022-10-20T14:22:49.594Z,95.85
2022-10-20T14:33:16.032Z,100.00
2022-10-20T14:43:43.221Z,100.00
2022-10-20T14:54:19.766Z,100.00
2022-10-20T15:04:41.993Z,100.00
2022-10-20T15:15:05.966Z,100.00
2022-10-20T15:25:30.014Z,100.00
2022-10-20T15:35:52.993Z,100.00
2022-10-20T15:46:15.191Z,100.00
2022-10-20T15:56:36.612Z,100.00
2022-10-20T16:07:02.606Z,100.00
2022-10-20T16:17:24.353Z,100.00
2022-10-20T16:27:45.904Z,100.00
2022-10-20T16:38:07.262Z,100.00
2022-10-20T16:48:30.402Z,100.00
2022-10-20T16:58:51.980Z,100.00
2022-10-20T17:09:13.322Z,100.00
2022-10-20T17:19:34.745Z,100.00
2022-10-20T17:29:56.105Z,100.00
2022-10-20T17:50:44.050Z,100.00
2022-10-20T18:01:08.766Z,100.00
2022-10-20T18:11:31.237Z,100.00
2022-10-20T18:21:52.694Z,100.00
2022-10-20T18:32:14.123Z,100.00
2022-10-20T18:42:35.489Z,100.00
2022-10-20T18:52:56.833Z,100.00
2022-10-20T19:03:18.204Z,100.00
2022-10-20T19:13:40.037Z,100.00
2022-10-20T19:24:06.508Z,100.00
2022-10-20T19:34:30.197Z,100.00
2022-10-20T19:44:51.726Z,100.00
2022-10-20T19:55:13.073Z,100.00
2022-10-20T20:05:34.453Z,100.00
2022-10-20T20:15:55.878Z,100.00
2022-10-20T20:26:17.234Z,100.00
2022-10-20T20:36:39.463Z,100.00
2022-10-20T20:47:00.864Z,100.00
2022-10-20T20:57:22.566Z,100.00
2022-10-20T21:07:43.912Z,100.00
2022-10-20T21:18:05.298Z,100.00
2022-10-20T21:28:26.652Z,100.00
2022-10-20T21:38:48.367Z,100.00
2022-10-20T21:49:11.533Z,100.00
2022-10-20T21:59:32.903Z,100.00
2022-10-20T22:09:54.396Z,100.00
2022-10-20T22:20:15.780Z,100.00
2022-10-20T22:30:37.155Z,100.00
2022-10-20T22:41:02.360Z,100.00
2022-10-20T22:51:23.757Z,100.00
2022-10-20T23:01:45.794Z,100.00
2022-10-20T23:12:07.153Z,100.00
2022-10-20T23:22:28.489Z,100.00
2022-10-20T23:32:49.832Z,100.00
2022-10-20T23:43:11.187Z,100.00
2022-10-20T23:53:32.941Z,100.00
